Time;durP1;ratioP1;P1;durP2;ratioP2;P2;SDS_P1;SDS_P2;PMS_P1;PMS_P2;Temp;Humidity;BMP_temperature;BMP_pressure;BME280_temperature;BME280_humidity;BME280_pressure;Samples;Min_cycle;Max_cycle;Signal;HPM_P1;HPM_P2
2023/03/30 00:00:32;;;;;;;0.60;0.60;;;;;;;21.14;39.02;99723.09;4542873;28;20037;-55
2023/03/30 00:02:49;;;;;;;0.82;0.60;;;;;;;21.16;38.87;99729.28;4541911;28;20040;-55
2023/03/30 00:05:01;;;;;;;0.90;0.70;;;;;;;21.11;38.89;99718.16;4543114;28;20049;-55
2023/03/30 00:07:12;;;;;;;0.50;0.50;;;;;;;21.14;39.16;99725.97;4542344;28;20025;-56
2023/03/30 00:09:23;;;;;;;0.50;0.50;;;;;;;21.14;38.81;99717.38;4543493;28;20028;-55
2023/03/30 00:11:34;;;;;;;0.85;0.60;;;;;;;21.11;38.83;99712.41;4545781;28;20111;-55
2023/03/30 00:13:44;;;;;;;0.57;0.50;;;;;;;21.10;38.89;99705.03;4544785;28;20032;-55
2023/03/30 00:15:55;;;;;;;0.60;0.50;;;;;;;21.11;38.78;99708.72;4543398;28;20034;-56
2023/03/30 00:18:06;;;;;;;0.70;0.60;;;;;;;21.11;38.49;99712.41;4542774;28;20044;-55
2023/03/30 00:20:17;;;;;;;0.50;0.50;;;;;;;21.11;38.32;99705.84;4542668;28;20021;-55
2023/03/30 00:22:27;;;;;;;1.20;0.60;;;;;;;21.10;38.60;99707.91;4544045;28;20029;-55
2023/03/30 00:24:37;;;;;;;1.17;0.60;;;;;;;21.09;38.51;99703.38;4545023;28;20099;-56
2023/03/30 00:26:48;;;;;;;1.35;0.70;;;;;;;21.07;38.15;99700.09;4543433;28;20592;-56
2023/03/30 00:28:59;;;;;;;0.98;0.60;;;;;;;21.13;38.32;99707.13;4543229;28;20035;-55
2023/03/30 00:31:10;;;;;;;0.60;0.60;;;;;;;21.10;38.22;99698.47;4543908;28;20646;-56
2023/03/30 00:33:20;;;;;;;0.50;0.50;;;;;;;21.07;38.33;99700.09;4543881;28;20036;-56
2023/03/30 00:35:31;;;;;;;1.20;0.75;;;;;;;21.11;38.08;99698.06;4544103;28;20223;-56
2023/03/30 00:37:44;;;;;;;0.82;0.52;;;;;;;21.12;37.83;99698.91;4543790;28;20798;-56
2023/03/30 00:39:55;;;;;;;0.77;0.57;;;;;;;20.98;37.81;99676.59;4535099;28;20033;-56
2023/03/30 00:42:05;;;;;;;0.82;0.50;;;;;;;21.11;37.88;99689.47;4560349;27;20033;-56
2023/03/30 00:44:54;;;;;;;0.60;0.50;;;;;;;21.11;38.06;99686.59;4550900;28;20047;-56
2023/03/30 00:47:04;;;;;;;0.77;0.50;;;;;;;21.03;37.81;99670.50;4542844;28;20144;-57
2023/03/30 00:49:15;;;;;;;0.40;0.40;;;;;;;21.08;37.74;99672.19;4558918;28;20043;-56
2023/03/30 00:51:27;;;;;;;0.60;0.60;;;;;;;21.04;37.47;99669.28;4544756;28;20094;-56
2023/03/30 00:53:42;;;;;;;1.00;0.60;;;;;;;21.11;37.84;99674.28;4543091;28;20037;-57
2023/03/30 00:55:53;;;;;;;0.80;0.60;;;;;;;21.06;37.22;99664.00;4550865;28;20096;-56
2023/03/30 00:58:06;;;;;;;0.75;0.45;;;;;;;21.06;37.41;99652.50;4545009;28;20033;-56
2023/03/30 01:00:17;;;;;;;0.50;0.50;;;;;;;21.08;37.29;99650.09;4544375;28;20036;-56
2023/03/30 01:02:32;;;;;;;0.88;0.63;;;;;;;21.07;37.27;99648.44;4543014;28;20025;-56
2023/03/30 01:04:43;;;;;;;1.02;0.57;;;;;;;21.07;37.30;99654.19;4557528;28;20043;-55
2023/03/30 01:06:56;;;;;;;0.80;0.50;;;;;;;21.07;37.65;99648.44;4544082;28;20215;-56
2023/03/30 01:09:07;;;;;;;0.80;0.68;;;;;;;21.06;37.12;99646.78;4557747;28;20021;-56
2023/03/30 01:11:17;;;;;;;1.05;0.50;;;;;;;21.03;37.37;99647.56;4544352;28;20415;-56
2023/03/30 01:13:31;;;;;;;0.88;0.60;;;;;;;21.03;37.15;99638.97;4546096;28;20032;-56
2023/03/30 01:16:00;;;;;;;0.90;0.50;;;;;;;21.05;37.52;99633.66;4545821;28;20037;-56
2023/03/30 01:18:29;;;;;;;0.63;0.50;;;;;;;21.07;36.86;99634.09;4548165;28;20052;-56
2023/03/30 01:21:16;;;;;;;0.65;0.50;;;;;;;21.07;36.95;99644.75;4545950;28;20768;-56
2023/03/30 01:23:54;;;;;;;0.70;0.60;;;;;;;21.07;36.86;99627.53;4547540;28;20037;-56
2023/03/30 01:26:05;;;;;;;1.55;0.50;;;;;;;21.06;37.30;99629.56;4561567;28;20559;-56
2023/03/30 01:28:45;;;;;;;1.65;0.50;;;;;;;21.03;37.21;99627.47;4546965;28;20040;-56
2023/03/30 01:31:12;;;;;;;0.60;0.57;;;;;;;21.06;37.14;99635.28;4545749;28;20040;-56
2023/03/30 01:33:35;;;;;;;0.90;0.70;;;;;;;21.05;37.04;99627.91;4548105;28;20040;-56
2023/03/30 01:35:58;;;;;;;0.77;0.50;;;;;;;21.04;36.83;99626.25;4546883;28;20025;-56
2023/03/30 01:38:25;;;;;;;0.98;0.50;;;;;;;21.05;36.70;99625.06;4546929;28;20609;-56
2023/03/30 01:41:00;;;;;;;1.13;0.60;;;;;;;21.05;36.89;99613.56;4548308;28;20090;-56
2023/03/30 01:43:18;;;;;;;0.60;0.60;;;;;;;21.02;36.74;99604.91;4554101;28;20044;-57
2023/03/30 01:45:33;;;;;;;1.23;0.60;;;;;;;21.04;36.61;99602.50;4561583;28;20142;-56
2023/03/30 01:48:01;;;;;;;0.63;0.60;;;;;;;21.04;36.64;99596.75;4546295;28;20151;-55
2023/03/30 01:50:19;;;;;;;0.50;0.50;;;;;;;21.04;36.74;99594.69;4551957;28;20091;-57
2023/03/30 01:52:40;;;;;;;1.88;0.60;;;;;;;21.01;36.62;99581.13;4559752;27;20646;-56
2023/03/30 01:54:57;;;;;;;0.70;0.57;;;;;;;20.99;36.21;99572.13;4551104;28;20818;-56
2023/03/30 01:57:14;;;;;;;1.38;0.60;;;;;;;21.02;35.96;99571.34;4547727;28;20048;-56
2023/03/30 01:59:30;;;;;;;0.77;0.50;;;;;;;21.01;36.42;99558.19;4561748;28;20052;-56
2023/03/30 02:01:41;;;;;;;0.65;0.50;;;;;;;21.03;36.42;99563.53;4544532;28;20032;-56
2023/03/30 02:03:57;;;;;;;0.50;0.50;;;;;;;20.96;36.14;99554.84;4544969;28;20839;-56
2023/03/30 02:06:37;;;;;;;0.50;0.50;;;;;;;21.02;35.88;99567.63;4543170;28;20037;-56
2023/03/30 02:08:50;;;;;;;0.75;0.50;;;;;;;20.99;35.67;99560.66;4561459;28;20039;-56
2023/03/30 02:11:01;;;;;;;0.80;0.50;;;;;;;20.85;35.81;99542.44;4562345;27;20082;-56
2023/03/30 02:13:14;;;;;;;0.77;0.60;;;;;;;20.95;35.70;99571.22;4544083;28;20544;-56
2023/03/30 02:15:30;;;;;;;0.65;0.52;;;;;;;21.00;35.85;99568.03;4542351;28;20027;-56
2023/03/30 02:17:42;;;;;;;0.98;0.65;;;;;;;20.99;35.42;99566.38;4559813;28;20044;-56
2023/03/30 02:19:55;;;;;;;0.50;0.47;;;;;;;20.99;35.57;99577.88;4552796;28;20043;-56
2023/03/30 02:22:05;;;;;;;0.73;0.40;;;;;;;20.97;35.53;99565.13;4560249;28;20176;-56
2023/03/30 02:24:24;;;;;;;0.80;0.50;;;;;;;20.98;35.95;99558.97;4545145;28;20549;-56
2023/03/30 02:26:35;;;;;;;1.30;0.47;;;;;;;20.98;35.93;99556.13;4545577;28;20041;-56
2023/03/30 02:28:46;;;;;;;0.82;0.60;;;;;;;20.97;35.75;99563.06;4560911;28;20047;-56
2023/03/30 02:30:56;;;;;;;0.60;0.50;;;;;;;21.00;36.04;99575.78;4559336;27;20043;-56
2023/03/30 02:33:24;;;;;;;0.60;0.52;;;;;;;20.96;35.78;99558.56;4559831;28;20574;-56
2023/03/30 02:35:56;;;;;;;0.93;0.60;;;;;;;20.99;35.71;99569.25;4560727;28;20036;-56
2023/03/30 02:38:54;;;;;;;0.63;0.52;;;;;;;20.99;35.77;99577.88;4561567;27;20045;-55
2023/03/30 02:41:38;;;;;;;0.65;0.40;;;;;;;20.97;35.89;99563.06;4544100;28;20041;-56
2023/03/30 02:44:15;;;;;;;0.55;0.50;;;;;;;20.94;35.75;99563.84;4543716;28;20040;-56
2023/03/30 02:46:54;;;;;;;0.70;0.60;;;;;;;20.93;35.67;99556.44;4559713;27;20329;-56
2023/03/30 02:49:10;;;;;;;0.40;0.40;;;;;;;20.97;35.62;99563.06;4553647;28;20044;-55
2023/03/30 02:51:38;;;;;;;0.50;0.40;;;;;;;20.96;35.67;99561.44;4548264;28;20036;-57
2023/03/30 02:54:25;;;;;;;0.90;0.50;;;;;;;20.98;35.67;99569.66;4542716;28;20087;-56
2023/03/30 02:57:11;;;;;;;0.50;0.45;;;;;;;20.92;35.48;99554.78;4543968;28;20059;-56
2023/03/30 02:59:54;;;;;;;0.73;0.60;;;;;;;20.96;35.67;99567.19;4542433;28;20049;-55
2023/03/30 03:02:31;;;;;;;0.40;0.40;;;;;;;20.90;35.75;99551.50;4543343;28;20552;-56
2023/03/30 03:04:54;;;;;;;0.82;0.50;;;;;;;20.93;36.08;99549.91;4543201;28;20120;-56
2023/03/30 03:07:20;;;;;;;0.45;0.45;;;;;;;20.91;35.88;99541.69;4542792;28;20041;-56
2023/03/30 03:09:31;;;;;;;1.10;0.60;;;;;;;20.94;36.14;99546.63;4543169;28;20098;-56
2023/03/30 03:11:41;;;;;;;0.60;0.50;;;;;;;20.90;35.51;99536.34;4560239;27;20125;-56
2023/03/30 03:13:52;;;;;;;0.60;0.50;;;;;;;20.92;35.64;99537.59;4542223;28;20143;-56
2023/03/30 03:16:04;;;;;;;1.10;0.50;;;;;;;20.92;35.49;99520.38;4560220;28;20097;-56
2023/03/30 03:18:15;;;;;;;0.60;0.50;;;;;;;20.92;35.61;99514.63;4560691;28;20040;-56
2023/03/30 03:20:29;;;;;;;1.35;0.60;;;;;;;20.90;35.88;99517.06;4543361;28;20037;-55
2023/03/30 03:22:40;;;;;;;0.98;0.52;;;;;;;20.91;35.69;99509.28;4543194;28;20678;-57
2023/03/30 03:24:51;;;;;;;0.77;0.57;;;;;;;20.92;35.95;99517.50;4544592;28;20041;-56
2023/03/30 03:27:11;;;;;;;0.63;0.57;;;;;;;20.90;35.98;99511.34;4560471;28;20028;-56
2023/03/30 03:29:37;;;;;;;0.50;0.50;;;;;;;20.92;35.94;99506.03;4543287;28;20052;-56
2023/03/30 03:31:48;;;;;;;0.60;0.50;;;;;;;20.91;35.94;99497.81;4550786;27;20052;-57
2023/03/30 03:33:58;;;;;;;0.95;0.50;;;;;;;20.91;35.94;99490.06;4559305;28;20056;-57
2023/03/30 03:36:25;;;;;;;0.98;0.50;;;;;;;20.87;36.15;99480.56;4543296;28;20040;-56
2023/03/30 03:38:39;;;;;;;0.90;0.57;;;;;;;20.91;35.62;99480.63;4545886;28;20494;-56
2023/03/30 03:40:50;;;;;;;1.15;0.77;;;;;;;20.90;35.78;99473.25;4543565;28;20032;-56
2023/03/30 03:43:01;;;;;;;0.50;0.47;;;;;;;20.89;35.73;99480.19;4544585;28;20133;-57
2023/03/30 03:45:12;;;;;;;0.40;0.40;;;;;;;20.89;36.18;99474.44;4551651;28;20033;-56
2023/03/30 03:47:34;;;;;;;1.55;0.50;;;;;;;20.88;36.05;99459.31;4542495;28;20143;-56
2023/03/30 03:49:45;;;;;;;0.68;0.40;;;;;;;20.87;35.74;99457.63;4543613;28;20235;-56
2023/03/30 03:51:55;;;;;;;0.50;0.50;;;;;;;20.87;36.07;99460.50;4544997;28;20128;-56
2023/03/30 03:54:06;;;;;;;0.98;0.60;;;;;;;20.77;36.23;99462.06;4550923;28;20529;-55
2023/03/30 03:56:17;;;;;;;1.27;0.50;;;;;;;20.87;36.21;99474.84;4558893;28;20127;-56
2023/03/30 03:58:28;;;;;;;1.23;0.60;;;;;;;20.89;36.35;99475.28;4550123;28;20049;-57
2023/03/30 04:00:39;;;;;;;1.33;0.50;;;;;;;20.80;36.41;99452.66;4544329;28;20033;-55
2023/03/30 04:02:50;;;;;;;0.52;0.50;;;;;;;20.83;36.09;99459.66;4544218;28;20036;-56
2023/03/30 04:05:00;;;;;;;0.50;0.47;;;;;;;20.87;36.36;99471.97;4559235;27;20044;-56
2023/03/30 04:07:11;;;;;;;1.27;0.60;;;;;;;20.84;36.13;99475.63;4544114;28;20032;-55
2023/03/30 04:09:22;;;;;;;0.93;0.50;;;;;;;20.85;36.51;99470.72;4549390;28;20028;-56
2023/03/30 04:11:52;;;;;;;0.60;0.47;;;;;;;20.82;36.68;99468.66;4542369;28;20521;-56
2023/03/30 04:14:13;;;;;;;0.45;0.45;;;;;;;20.84;36.39;99475.63;4541585;28;21306;-56
2023/03/30 04:16:31;;;;;;;0.57;0.43;;;;;;;20.83;36.36;99473.16;4556660;27;20028;-56
2023/03/30 04:18:56;;;;;;;0.60;0.60;;;;;;;20.86;36.42;99484.69;4542728;28;20037;-56
2023/03/30 04:21:35;;;;;;;1.45;0.75;;;;;;;20.85;36.76;99483.03;4540555;28;20048;-57
2023/03/30 04:24:12;;;;;;;0.50;0.50;;;;;;;20.86;36.38;99478.09;4550762;28;20052;-56
2023/03/30 04:26:58;;;;;;;0.60;0.57;;;;;;;20.85;36.95;99480.19;4542787;28;20053;-56
2023/03/30 04:29:19;;;;;;;0.80;0.60;;;;;;;20.83;36.81;99476.03;4539735;28;20041;-55
2023/03/30 04:31:45;;;;;;;0.55;0.47;;;;;;;20.85;37.08;99474.44;4544330;28;20153;-56
2023/03/30 04:34:01;;;;;;;1.05;0.60;;;;;;;20.85;37.13;99471.56;4540313;28;20056;-56
2023/03/30 04:36:44;;;;;;;0.90;0.50;;;;;;;20.83;36.77;99466.19;4524686;28;20052;-56
2023/03/30 04:39:10;;;;;;;1.38;0.63;;;;;;;20.81;36.83;99462.09;4542626;28;20178;-57
2023/03/30 04:41:47;;;;;;;0.57;0.57;;;;;;;20.85;36.80;99468.69;4550440;28;20048;-56
2023/03/30 04:44:22;;;;;;;0.88;0.60;;;;;;;20.83;36.81;99461.69;4560602;27;20048;-56
2023/03/30 04:47:05;;;;;;;0.85;0.50;;;;;;;20.83;36.73;99468.25;4540354;28;20184;-56
2023/03/30 04:49:46;;;;;;;0.60;0.60;;;;;;;20.82;36.88;99469.47;4542855;28;20067;-56
2023/03/30 04:52:32;;;;;;;1.50;0.70;;;;;;;20.80;37.44;99477.66;4512616;28;20816;-56
2023/03/30 04:55:02;;;;;;;0.65;0.50;;;;;;;20.80;37.28;99477.66;4538107;28;20025;-57
2023/03/30 04:57:32;;;;;;;0.65;0.50;;;;;;;20.82;37.04;99475.19;4545062;28;20068;-55
2023/03/30 04:59:57;;;;;;;0.77;0.55;;;;;;;20.78;37.37;99463.72;4562086;28;20330;-58
2023/03/30 05:02:26;;;;;;;1.10;0.70;;;;;;;20.82;37.35;99465.78;4545214;28;20579;-56
2023/03/30 05:04:51;;;;;;;0.88;0.60;;;;;;;20.81;37.38;99470.69;4544578;28;20043;-56
2023/03/30 05:07:34;;;;;;;1.27;0.77;;;;;;;20.80;37.27;99466.19;4527432;28;20040;-56
2023/03/30 05:09:57;;;;;;;0.85;0.60;;;;;;;20.82;37.26;99458.00;4538785;28;20585;-56
2023/03/30 05:12:16;;;;;;;0.90;0.57;;;;;;;20.82;37.30;99451.44;4542266;28;20032;-55
2023/03/30 05:14:43;;;;;;;1.02;0.70;;;;;;;20.80;37.14;99454.72;4560327;28;20043;-55
2023/03/30 05:17:12;;;;;;;0.98;0.75;;;;;;;20.83;37.72;99466.19;4560544;28;20093;-55
2023/03/30 05:19:42;;;;;;;2.58;0.80;;;;;;;20.79;37.31;99470.25;4545464;28;20076;-55
2023/03/30 05:22:08;;;;;;;0.73;0.60;;;;;;;20.74;37.55;99459.16;4545483;28;20037;-56
2023/03/30 05:24:42;;;;;;;1.13;0.70;;;;;;;20.76;37.71;99465.31;4543422;28;21338;-56
2023/03/30 05:27:08;;;;;;;1.15;0.70;;;;;;;20.79;37.84;99455.91;4559273;28;20573;-57
2023/03/30 05:29:33;;;;;;;2.13;0.60;;;;;;;20.79;37.49;99458.78;4544933;28;20073;-56
2023/03/30 05:32:02;;;;;;;1.80;0.80;;;;;;;20.81;37.89;99467.81;4546333;28;20044;-56
2023/03/30 05:34:29;;;;;;;2.33;0.68;;;;;;;20.84;37.84;99469.91;4543367;28;20033;-59
2023/03/30 05:36:58;;;;;;;1.08;0.85;;;;;;;20.81;37.72;99456.34;4544454;28;20550;-57
2023/03/30 05:39:29;;;;;;;1.05;0.70;;;;;;;20.83;37.58;99459.66;4544268;28;20045;-59
2023/03/30 05:41:48;;;;;;;1.30;0.70;;;;;;;20.80;37.63;99460.47;4543502;28;20040;-56
2023/03/30 05:44:06;;;;;;;1.52;0.70;;;;;;;20.82;37.90;99463.72;4546689;28;20035;-58
2023/03/30 05:46:36;;;;;;;1.63;0.70;;;;;;;20.82;37.74;99460.84;4544130;28;20041;-56
2023/03/30 05:49:01;;;;;;;0.90;0.70;;;;;;;20.83;37.82;99459.66;4560465;27;20079;-55
2023/03/30 05:51:25;;;;;;;1.55;0.70;;;;;;;20.79;37.90;99461.66;4542503;28;20151;-56
2023/03/30 05:53:51;;;;;;;1.60;0.70;;;;;;;20.82;38.01;99458.00;4559500;28;21008;-56
2023/03/30 05:56:23;;;;;;;0.68;0.60;;;;;;;20.76;38.14;99448.94;4543909;28;20068;-58
2023/03/30 05:58:45;;;;;;;1.70;0.63;;;;;;;20.82;38.40;99458.00;4549820;28;20045;-58
2023/03/30 06:01:15;;;;;;;1.80;0.80;;;;;;;20.80;38.16;99464.13;4542767;28;20037;-56
2023/03/30 06:03:28;;;;;;;0.75;0.60;;;;;;;20.80;37.98;99466.19;4545516;28;20041;-56
2023/03/30 06:05:42;;;;;;;1.20;0.57;;;;;;;20.61;38.32;99437.75;4552513;27;20036;-56
2023/03/30 06:07:53;;;;;;;0.85;0.63;;;;;;;20.82;38.20;99474.41;4543685;28;20798;-56
2023/03/30 06:10:06;;;;;;;1.38;0.60;;;;;;;20.82;38.44;99475.19;4552524;28;20037;-55
2023/03/30 06:12:16;;;;;;;0.68;0.65;;;;;;;20.80;38.54;99472.72;4543452;27;20024;-56
2023/03/30 06:14:27;;;;;;;1.00;0.80;;;;;;;20.81;38.62;99482.16;4559501;28;20028;-57
2023/03/30 06:17:00;;;;;;;0.90;0.57;;;;;;;20.79;38.76;99473.13;4542588;28;20052;-56
2023/03/30 06:19:12;;;;;;;0.90;0.73;;;;;;;20.83;38.37;99466.19;4552779;28;20428;-56
2023/03/30 06:21:22;;;;;;;1.40;0.82;;;;;;;20.81;38.88;99464.97;4545830;28;20044;-55
2023/03/30 06:23:51;;;;;;;1.25;0.70;;;;;;;20.78;38.81;99457.16;4542067;28;20025;-55
2023/03/30 06:26:06;;;;;;;1.77;0.82;;;;;;;20.83;39.00;99466.19;4552589;28;20616;-55
2023/03/30 06:28:20;;;;;;;1.83;0.80;;;;;;;20.83;38.96;99453.09;4550806;28;20062;-56
2023/03/30 06:30:31;;;;;;;0.93;0.80;;;;;;;20.83;38.90;99468.25;4559650;28;20036;-58
2023/03/30 06:32:45;;;;;;;1.23;0.60;;;;;;;20.80;38.62;99458.38;4557833;27;20073;-55
2023/03/30 06:35:07;;;;;;;1.35;0.68;;;;;;;20.84;38.92;99455.56;4559354;27;20095;-57
2023/03/30 06:37:18;;;;;;;0.90;0.70;;;;;;;20.80;38.69;99448.97;4558122;28;20040;-56
2023/03/30 06:39:28;;;;;;;1.20;0.73;;;;;;;20.83;38.74;99456.78;4544590;28;20139;-56
2023/03/30 06:41:39;;;;;;;1.80;0.70;;;;;;;20.78;38.69;99446.50;4550871;28;20025;-56
2023/03/30 06:43:50;;;;;;;1.45;0.77;;;;;;;20.83;39.17;99453.94;4559927;27;20055;-55
2023/03/30 06:46:04;;;;;;;1.27;0.80;;;;;;;20.81;38.77;99436.28;4559342;28;20578;-56
2023/03/30 06:48:15;;;;;;;0.90;0.75;;;;;;;20.82;39.09;99443.66;4560975;27;20664;-58
2023/03/30 06:50:26;;;;;;;1.65;0.80;;;;;;;20.85;39.09;99445.75;4550541;28;20028;-56
2023/03/30 06:52:46;;;;;;;0.95;0.80;;;;;;;20.84;39.23;99449.81;4558321;27;20037;-57
2023/03/30 06:54:57;;;;;;;1.13;0.70;;;;;;;20.83;39.08;99442.44;4549933;28;20423;-60
2023/03/30 06:57:08;;;;;;;1.70;0.90;;;;;;;20.78;39.47;99425.59;4551911;28;20504;-58
2023/03/30 06:59:18;;;;;;;1.90;0.90;;;;;;;20.83;39.54;99436.72;4534580;28;20056;-57
2023/03/30 07:02:15;;;;;;;1.45;0.80;;;;;;;20.81;39.71;99430.53;4513550;28;20057;-58
2023/03/30 07:04:49;;;;;;;1.15;0.90;;;;;;;20.84;39.79;99438.34;4529057;28;20043;-58
2023/03/30 07:07:10;;;;;;;1.60;0.90;;;;;;;20.82;39.52;99440.78;4553392;28;21158;-58
2023/03/30 07:09:21;;;;;;;1.00;0.80;;;;;;;20.84;39.67;99446.97;4549971;28;20028;-57
2023/03/30 07:11:31;;;;;;;1.55;0.98;;;;;;;20.86;39.67;99453.13;4541458;28;20037;-57
2023/03/30 07:13:42;;;;;;;1.05;0.73;;;;;;;20.83;40.10;99447.34;4550728;27;20114;-58
2023/03/30 07:15:52;;;;;;;0.98;0.77;;;;;;;20.86;40.00;99453.13;4545403;28;20260;-57
2023/03/30 07:18:03;;;;;;;1.10;1.00;;;;;;;20.85;39.79;99444.91;4551745;28;20043;-57
2023/03/30 07:20:14;;;;;;;1.23;0.80;;;;;;;20.86;39.54;99458.88;4542955;28;20513;-57
2023/03/30 07:22:41;;;;;;;1.40;0.80;;;;;;;20.88;39.70;99461.34;4537479;28;20036;-57
2023/03/30 07:24:52;;;;;;;1.60;0.70;;;;;;;20.81;39.55;99453.50;4542936;28;20039;-58
2023/03/30 07:27:02;;;;;;;1.85;0.77;;;;;;;20.82;39.27;99472.34;4542494;28;20158;-57
2023/03/30 07:29:14;;;;;;;0.75;0.50;;;;;;;20.84;39.97;99467.03;4551981;28;20039;-57
2023/03/30 07:31:27;;;;;;;1.42;0.70;;;;;;;20.87;39.44;99479.78;4557878;28;20032;-57
2023/03/30 07:33:39;;;;;;;0.75;0.70;;;;;;;20.86;39.81;99476.06;4559377;27;20721;-57
2023/03/30 07:35:51;;;;;;;1.17;0.98;;;;;;;20.75;39.63;99452.22;4535714;28;20668;-57
2023/03/30 07:38:07;;;;;;;1.48;0.60;;;;;;;20.83;39.76;99464.56;4560858;27;20133;-57
2023/03/30 07:40:21;;;;;;;1.10;0.70;;;;;;;20.85;39.79;99476.47;4545158;28;20044;-57
2023/03/30 07:42:31;;;;;;;2.05;0.70;;;;;;;20.83;39.46;99473.16;4550939;28;20059;-57
2023/03/30 07:44:42;;;;;;;1.10;0.60;;;;;;;20.86;39.56;99475.25;4557350;28;20038;-57
2023/03/30 07:46:59;;;;;;;0.88;0.70;;;;;;;20.85;39.31;99470.72;4545270;28;20040;-57
2023/03/30 07:49:09;;;;;;;1.42;0.82;;;;;;;20.83;39.85;99480.53;4542088;28;20641;-57
2023/03/30 07:51:20;;;;;;;1.17;0.60;;;;;;;20.83;39.75;99476.88;4550825;28;20106;-57
2023/03/30 07:53:39;;;;;;;1.20;0.80;;;;;;;20.85;40.00;99479.34;4550160;28;20029;-57
2023/03/30 07:55:59;;;;;;;1.17;0.55;;;;;;;20.85;40.16;99474.44;4558227;28;20740;-57
2023/03/30 07:58:17;;;;;;;0.68;0.55;;;;;;;20.83;40.21;99468.25;4558170;27;20148;-59
2023/03/30 08:00:29;;;;;;;1.05;0.70;;;;;;;20.84;40.38;99478.50;4540180;28;20029;-56
2023/03/30 08:03:03;;;;;;;1.20;0.90;;;;;;;20.80;40.37;99477.66;4545287;28;20055;-57
2023/03/30 08:05:14;;;;;;;1.77;0.90;;;;;;;20.77;40.34;99472.72;4550837;28;20131;-57
2023/03/30 08:07:37;;;;;;;0.90;0.80;;;;;;;20.80;40.45;99489.13;4551784;28;20203;-57
2023/03/30 08:09:55;;;;;;;1.13;0.80;;;;;;;20.79;40.63;99479.69;4560123;28;20624;-59
2023/03/30 08:12:06;;;;;;;1.88;1.00;;;;;;;20.83;40.42;99485.47;4543556;28;20044;-57
2023/03/30 08:14:17;;;;;;;1.60;0.80;;;;;;;20.77;40.38;99462.06;4543039;28;20048;-57
2023/03/30 08:16:27;;;;;;;0.90;0.80;;;;;;;20.76;40.42;99462.44;4541710;28;20498;-58
2023/03/30 08:18:40;;;;;;;1.17;0.85;;;;;;;20.81;41.29;99462.09;4545282;28;20052;-57
2023/03/30 08:20:52;;;;;;;1.58;0.95;;;;;;;20.77;41.37;99452.66;4544395;28;21045;-57
2023/03/30 08:23:04;;;;;;;1.17;0.90;;;;;;;20.74;41.63;99459.16;4544199;28;20029;-57
2023/03/30 08:25:14;;;;;;;1.50;1.00;;;;;;;20.84;41.73;99467.03;4543789;28;20208;-58
2023/03/30 08:27:24;;;;;;;1.90;0.95;;;;;;;20.81;41.76;99470.69;4542207;28;20098;-58
2023/03/30 08:29:35;;;;;;;2.17;1.10;;;;;;;20.82;41.96;99466.59;4544483;28;20020;-58
2023/03/30 08:31:46;;;;;;;1.65;1.05;;;;;;;20.77;41.77;99456.31;4558066;28;20036;-58
2023/03/30 08:33:56;;;;;;;2.13;1.10;;;;;;;20.83;41.73;99465.41;4544827;28;20032;-57
2023/03/30 08:36:07;;;;;;;1.52;1.00;;;;;;;20.82;41.27;99472.34;4543542;28;20033;-57
2023/03/30 08:38:18;;;;;;;1.40;0.80;;;;;;;20.79;41.56;99470.25;4542147;28;20049;-61
2023/03/30 08:40:29;;;;;;;1.25;0.80;;;;;;;20.83;41.26;99470.28;4558525;28;20037;-57
2023/03/30 08:43:07;;;;;;;1.20;0.80;;;;;;;20.83;40.94;99480.53;4550526;28;20601;-60
2023/03/30 08:45:18;;;;;;;0.95;0.73;;;;;;;20.82;40.88;99480.13;4558707;28;20414;-57
2023/03/30 08:47:35;;;;;;;1.17;1.00;;;;;;;20.61;40.56;99440.63;4544799;28;20971;-61
2023/03/30 08:49:57;;;;;;;1.55;0.80;;;;;;;20.80;40.09;99487.06;4559319;27;20059;-57
2023/03/30 08:52:16;;;;;;;1.40;0.80;;;;;;;20.83;39.67;99482.59;4542918;28;20025;-57
2023/03/30 08:54:29;;;;;;;0.80;0.80;;;;;;;20.82;39.95;99483.81;4559640;28;20090;-58
2023/03/30 08:56:47;;;;;;;0.95;0.70;;;;;;;20.79;39.66;99490.34;4542810;28;20035;-57
2023/03/30 08:59:00;;;;;;;0.70;0.60;;;;;;;20.83;40.12;99499.81;4544154;28;20049;-58
2023/03/30 09:01:23;;;;;;;0.90;0.65;;;;;;;20.83;40.29;99500.63;4542796;28;20160;-57
2023/03/30 09:03:40;;;;;;;0.95;0.60;;;;;;;20.84;40.60;99507.19;4543147;28;20561;-58
2023/03/30 09:05:57;;;;;;;0.50;0.50;;;;;;;20.83;40.25;99507.59;4543742;28;20195;-57
2023/03/30 09:08:22;;;;;;;1.23;0.70;;;;;;;20.83;40.23;99505.53;4543020;28;20123;-58
2023/03/30 09:10:38;;;;;;;0.60;0.60;;;;;;;20.83;40.31;99503.47;4543264;28;20102;-57
2023/03/30 09:12:59;;;;;;;1.40;0.73;;;;;;;20.84;40.91;99512.91;4542746;28;20036;-57
2023/03/30 09:15:24;;;;;;;1.58;0.90;;;;;;;20.85;40.85;99508.03;4542721;28;20044;-57
2023/03/30 09:18:03;;;;;;;1.10;0.70;;;;;;;20.79;40.93;99498.94;4542399;28;20033;-57
2023/03/30 09:20:28;;;;;;;1.17;0.98;;;;;;;20.84;41.05;99518.66;4545663;28;20094;-57
2023/03/30 09:22:41;;;;;;;0.93;0.75;;;;;;;20.85;40.81;99517.47;4543115;28;20037;-57
2023/03/30 09:24:52;;;;;;;0.70;0.68;;;;;;;20.82;41.32;99508.81;4558035;28;20081;-58
2023/03/30 09:27:11;;;;;;;0.82;0.80;;;;;;;20.87;41.55;99517.06;4542399;28;20098;-57
2023/03/30 09:29:27;;;;;;;0.95;0.90;;;;;;;20.83;41.33;99511.28;4542118;28;20041;-57
2023/03/30 09:31:43;;;;;;;1.25;0.70;;;;;;;20.86;41.65;99527.69;4551491;28;20032;-57
2023/03/30 09:34:05;;;;;;;1.00;0.80;;;;;;;20.85;41.72;99520.31;4543963;28;20041;-57
2023/03/30 09:36:26;;;;;;;1.05;0.90;;;;;;;20.85;41.44;99520.31;4545837;28;20045;-57
2023/03/30 09:38:40;;;;;;;1.40;0.70;;;;;;;20.84;41.18;99524.38;4545558;28;20042;-57
2023/03/30 09:41:26;;;;;;;0.65;0.65;;;;;;;20.85;41.01;99523.19;4545742;28;20044;-57
2023/03/30 09:43:43;;;;;;;0.90;0.90;;;;;;;20.86;40.95;99516.22;4545257;28;20033;-57
2023/03/30 09:45:55;;;;;;;1.08;0.90;;;;;;;20.88;40.91;99519.53;4544953;28;20996;-57
2023/03/30 09:48:07;;;;;;;1.10;0.65;;;;;;;20.87;41.33;99529.34;4546832;28;20751;-57
2023/03/30 09:50:28;;;;;;;0.70;0.70;;;;;;;20.80;41.26;99523.56;4544219;28;20039;-57
2023/03/30 09:52:40;;;;;;;1.52;0.80;;;;;;;20.88;40.79;99531.00;4545533;28;20031;-57
2023/03/30 09:54:50;;;;;;;1.45;0.80;;;;;;;20.89;40.71;99532.63;4545687;28;20124;-57
2023/03/30 09:57:01;;;;;;;2.47;1.00;;;;;;;20.88;40.90;99533.03;4547000;28;20028;-57
2023/03/30 09:59:30;;;;;;;1.05;0.90;;;;;;;20.88;41.14;99535.91;4561327;28;20547;-56
2023/03/30 10:01:41;;;;;;;1.10;1.00;;;;;;;20.88;40.96;99542.47;4545971;28;20548;-57
2023/03/30 10:04:09;;;;;;;0.90;0.80;;;;;;;20.90;41.11;99548.63;4544778;28;20690;-57
2023/03/30 10:06:20;;;;;;;1.05;0.90;;;;;;;20.90;40.72;99545.75;4546284;28;20635;-58
2023/03/30 10:08:31;;;;;;;1.00;0.80;;;;;;;20.88;40.84;99548.22;4544953;28;20722;-57
2023/03/30 10:10:42;;;;;;;1.25;0.90;;;;;;;20.87;40.81;99549.41;4558925;28;20094;-57
2023/03/30 10:13:18;;;;;;;1.48;0.80;;;;;;;20.89;40.90;99546.16;4544634;28;20028;-57
2023/03/30 10:15:31;;;;;;;0.95;0.85;;;;;;;20.86;41.55;99550.66;4543892;28;20033;-58
2023/03/30 10:17:45;;;;;;;1.73;1.10;;;;;;;20.89;40.98;99549.84;4559918;27;20040;-56
2023/03/30 10:20:25;;;;;;;1.40;1.20;;;;;;;20.86;41.13;99549.81;4542948;28;20052;-56
2023/03/30 10:22:36;;;;;;;1.27;1.00;;;;;;;20.91;41.52;99564.63;4544414;28;20322;-57
2023/03/30 10:24:52;;;;;;;1.25;0.80;;;;;;;20.92;41.42;99566.28;4559719;28;20508;-57
2023/03/30 10:27:10;;;;;;;1.08;0.80;;;;;;;20.93;41.09;99567.09;4544260;28;20131;-56
2023/03/30 10:29:24;;;;;;;1.13;0.63;;;;;;;20.88;41.52;99561.72;4544473;28;20662;-61
2023/03/30 10:31:37;;;;;;;1.13;1.00;;;;;;;20.92;41.65;99563.41;4543948;28;20044;-57
2023/03/30 10:33:48;;;;;;;1.00;0.82;;;;;;;20.91;41.16;99561.75;4559319;27;20116;-57
2023/03/30 10:35:59;;;;;;;0.88;0.80;;;;;;;20.92;41.42;99554.78;4543907;28;20040;-57
2023/03/30 10:38:13;;;;;;;0.90;0.80;;;;;;;20.93;41.36;99567.91;4544117;28;20060;-57
2023/03/30 10:40:33;;;;;;;0.93;0.73;;;;;;;20.93;41.65;99562.16;4543013;28;20037;-57
2023/03/30 10:42:47;;;;;;;1.38;0.90;;;;;;;20.92;41.64;99549.06;4547424;28;20032;-57
2023/03/30 10:45:00;;;;;;;0.77;0.77;;;;;;;20.94;42.34;99569.56;4544878;28;20655;-57
2023/03/30 10:47:57;;;;;;;1.40;0.90;;;;;;;20.93;42.97;99562.16;4544552;28;20579;-56
2023/03/30 10:50:34;;;;;;;1.65;1.00;;;;;;;20.94;42.95;99569.56;4544803;28;20044;-56
2023/03/30 10:52:47;;;;;;;1.70;0.80;;;;;;;20.94;42.80;99569.56;4544757;28;20171;-58
2023/03/30 10:55:14;;;;;;;0.77;0.77;;;;;;;20.93;42.73;99567.09;4544318;28;20037;-57